Time;durP1;ratioP1;P1;durP2;ratioP2;P2;SDS_P1;SDS_P2;PMS_P1;PMS_P2;Temp;Humidity;BMP_temperature;BMP_pressure;BME280_temperature;BME280_humidity;BME280_pressure;Samples;Min_cycle;Max_cycle;Signal;HPM_P1;HPM_P2
2022/09/25 00:04:35;;;;;;;13.80;9.80;;;22.10;69.80;;;;;;220470;1267;22608;-47
2022/09/25 00:09:39;;;;;;;14.40;9.70;;;22.10;69.70;;;;;;220138;1268;25243;-48
2022/09/25 00:14:42;;;;;;;13.20;9.60;;;22.10;69.80;;;;;;220167;1268;25457;-47
2022/09/25 00:19:52;;;;;;;13.50;9.20;;;22.10;69.80;;;;;;220041;1267;22595;-51
2022/09/25 00:24:59;;;;;;;13.90;9.90;;;22.00;69.60;;;;;;219987;1270;24228;-48
2022/09/25 00:30:04;;;;;;;14.20;9.60;;;22.00;69.70;;;;;;220329;1267;25290;-51
2022/09/25 00:35:08;;;;;;;13.30;9.30;;;22.00;70.10;;;;;;220437;1267;22713;-50
2022/09/25 00:40:12;;;;;;;14.80;9.60;;;21.90;69.90;;;;;;220330;1267;22738;-51
2022/09/25 00:45:19;;;;;;;11.90;9.00;;;21.90;69.80;;;;;;220379;1267;24221;-51
2022/09/25 00:50:37;;;;;;;14.40;9.60;;;21.90;70.10;;;;;;220548;1267;22620;-49
2022/09/25 00:55:43;;;;;;;12.60;9.00;;;21.90;69.80;;;;;;220573;1267;22617;-50
2022/09/25 01:00:50;;;;;;;13.90;9.20;;;21.80;69.80;;;;;;220563;1267;24367;-48
2022/09/25 01:05:58;;;;;;;16.30;9.50;;;21.80;69.80;;;;;;220204;1267;24240;-51
2022/09/25 01:11:03;;;;;;;13.50;9.20;;;21.80;69.70;;;;;;220095;1267;22615;-50
2022/09/25 01:16:13;;;;;;;14.60;9.10;;;21.80;69.70;;;;;;220140;1267;23826;-53
2022/09/25 01:21:36;;;;;;;13.10;9.00;;;21.80;69.60;;;;;;220228;1268;22621;-51
2022/09/25 01:26:59;;;;;;;13.00;9.20;;;21.80;69.80;;;;;;220416;1267;26585;-47
2022/09/25 01:32:21;;;;;;;13.30;8.70;;;21.70;70.20;;;;;;220344;1267;22564;-47
2022/09/25 01:37:31;;;;;;;12.40;8.60;;;21.70;69.80;;;;;;220586;1267;25246;-51
2022/09/25 01:43:02;;;;;;;12.20;8.70;;;21.70;69.80;;;;;;220642;1267;23943;-48
2022/09/25 01:48:08;;;;;;;11.20;8.50;;;21.70;70.00;;;;;;220435;1267;22558;-54
2022/09/25 01:53:17;;;;;;;13.60;9.20;;;21.70;69.70;;;;;;220336;1268;22697;-54
2022/09/25 01:58:33;;;;;;;12.50;8.10;;;21.70;69.80;;;;;;220516;1267;24401;-46
2022/09/25 02:03:50;;;;;;;11.30;8.90;;;21.70;69.70;;;;;;220534;1267;22662;-52
2022/09/25 02:09:03;;;;;;;14.40;8.30;;;21.60;70.00;;;;;;220467;1267;22605;-50
2022/09/25 02:14:13;;;;;;;10.70;8.00;;;21.60;69.60;;;;;;220500;1267;23338;-49
2022/09/25 02:24:55;;;;;;;12.50;8.70;;;21.60;69.70;;;;;;220541;1267;22548;-51
2022/09/25 02:30:01;;;;;;;;;;;21.50;69.60;;;;;;220334;1267;24250;-48
2022/09/25 02:35:05;;;;;;;13.20;8.40;;;21.50;69.60;;;;;;220584;1267;25401;-50
2022/09/25 02:40:10;;;;;;;11.00;8.20;;;21.50;69.50;;;;;;220418;1267;22678;-50
2022/09/25 02:45:32;;;;;;;12.90;8.50;;;21.50;69.70;;;;;;220577;1267;23972;-51
2022/09/25 02:51:03;;;;;;;11.10;7.90;;;21.50;70.10;;;;;;220430;1268;22806;-49
2022/09/25 02:56:40;;;;;;;11.40;7.80;;;21.50;69.70;;;;;;219839;1267;24214;-48
2022/09/25 03:01:46;;;;;;;13.70;8.70;;;21.40;69.70;;;;;;223602;1267;22574;-49
2022/09/25 03:06:50;;;;;;;14.00;8.40;;;21.40;69.70;;;;;;224247;1267;25656;-48
2022/09/25 03:11:54;;;;;;;12.00;8.30;;;21.40;69.70;;;;;;220481;1267;24148;-52
2022/09/25 03:17:03;;;;;;;10.00;7.70;;;21.40;69.70;;;;;;220413;1267;24335;-50
2022/09/25 03:22:07;;;;;;;12.70;8.40;;;21.40;69.70;;;;;;220660;1267;25241;-49
2022/09/25 03:27:10;;;;;;;11.80;8.40;;;21.40;69.70;;;;;;220415;1268;22541;-54
2022/09/25 03:32:14;;;;;;;9.80;7.50;;;21.40;69.60;;;;;;220710;1267;24783;-49
2022/09/25 03:37:18;;;;;;;10.80;7.90;;;21.40;69.70;;;;;;220348;1267;22534;-48
2022/09/25 03:42:27;;;;;;;14.30;7.90;;;21.30;69.60;;;;;;220466;1267;23934;-49
2022/09/25 03:47:30;;;;;;;12.10;7.80;;;21.30;70.00;;;;;;220145;1267;22547;-49
2022/09/25 03:52:34;;;;;;;10.40;7.10;;;21.30;69.70;;;;;;220138;1267;25366;-50
2022/09/25 03:57:38;;;;;;;10.70;7.50;;;21.30;69.70;;;;;;220661;1267;26484;-45
2022/09/25 04:02:43;;;;;;;12.30;7.60;;;21.30;70.00;;;;;;220380;1267;25367;-47
2022/09/25 04:07:47;;;;;;;11.80;7.70;;;21.30;69.70;;;;;;220567;1267;25238;-51
2022/09/25 04:12:53;;;;;;;10.30;7.10;;;21.30;69.70;;;;;;220415;1267;22553;-48
2022/09/25 04:17:57;;;;;;;10.30;7.00;;;21.20;69.70;;;;;;220652;1267;22534;-52
2022/09/25 04:23:07;;;;;;;10.70;7.10;;;21.20;69.60;;;;;;220302;1267;22653;-49
2022/09/25 04:28:11;;;;;;;13.20;7.60;;;21.20;69.70;;;;;;220358;1267;22571;-49
2022/09/25 04:38:51;;;;;;;9.80;7.00;;;21.20;69.80;;;;;;219720;1270;24235;-50
2022/09/25 04:43:55;;;;;;;10.40;7.50;;;21.20;69.70;;;;;;220683;1267;22567;-50
2022/09/25 04:48:58;;;;;;;9.00;6.80;;;21.10;69.70;;;;;;220431;1268;23906;-47
2022/09/25 04:54:04;;;;;;;11.60;6.70;;;21.10;69.90;;;;;;220443;1267;24364;-51
2022/09/25 04:59:16;;;;;;;9.20;6.70;;;21.10;69.60;;;;;;220385;1267;25319;-49
2022/09/25 05:04:19;;;;;;;11.10;6.90;;;21.10;69.60;;;;;;220341;1266;24225;-48
2022/09/25 05:09:23;;;;;;;9.00;7.00;;;21.10;69.60;;;;;;220422;1267;24041;-54
2022/09/25 05:14:29;;;;;;;9.10;6.60;;;21.10;69.90;;;;;;220335;1267;22496;-53
2022/09/25 05:19:34;;;;;;;9.80;6.90;;;21.00;69.50;;;;;;220585;1267;24272;-50
2022/09/25 05:24:38;;;;;;;9.60;6.90;;;21.00;69.50;;;;;;220657;1267;25299;-49
2022/09/25 05:29:42;;;;;;;9.60;6.60;;;21.00;69.80;;;;;;220651;1267;22608;-50
2022/09/25 05:34:45;;;;;;;10.70;7.10;;;21.00;69.60;;;;;;220320;1267;22538;-49
2022/09/25 05:39:50;;;;;;;9.80;6.90;;;21.00;69.60;;;;;;220322;1267;25301;-47
2022/09/25 05:44:53;;;;;;;11.40;6.80;;;21.00;69.60;;;;;;220018;1267;22551;-49
2022/09/25 05:50:09;;;;;;;9.50;6.10;;;21.00;69.60;;;;;;220179;1267;25365;-49
2022/09/25 05:55:24;;;;;;;8.90;6.70;;;21.00;69.90;;;;;;220302;1266;24302;-51
2022/09/25 06:00:31;;;;;;;9.70;6.50;;;21.00;69.60;;;;;;220387;1267;24293;-48
2022/09/25 06:05:35;;;;;;;10.50;7.40;;;21.00;69.80;;;;;;220435;1267;25201;-50
2022/09/25 06:10:40;;;;;;;10.00;6.70;;;21.00;69.60;;;;;;220478;1267;24667;-50
2022/09/25 06:15:43;;;;;;;9.90;6.70;;;21.00;69.70;;;;;;220443;1267;22544;-49
2022/09/25 06:20:48;;;;;;;11.20;7.30;;;21.00;69.60;;;;;;220441;1267;24271;-49
2022/09/25 06:25:52;;;;;;;9.80;6.40;;;21.00;69.60;;;;;;220522;1267;23058;-49
2022/09/25 06:31:04;;;;;;;10.40;6.80;;;21.00;69.70;;;;;;220524;1268;24300;-52
2022/09/25 06:36:13;;;;;;;9.80;6.40;;;21.00;69.50;;;;;;220269;1267;25355;-48
2022/09/25 06:41:31;;;;;;;8.50;5.60;;;21.00;69.40;;;;;;220456;1267;25258;-50
2022/09/25 06:46:35;;;;;;;10.50;6.40;;;21.00;69.80;;;;;;220629;1267;24271;-48
2022/09/25 06:51:49;;;;;;;15.80;6.50;;;21.00;69.20;;;;;;220620;1267;22550;-49
2022/09/25 06:56:56;;;;;;;8.10;5.10;;;21.00;69.40;;;;;;220370;1267;25559;-48
2022/09/25 07:07:25;;;;;;;13.10;6.00;;;21.10;69.20;;;;;;220725;1267;26539;-52
2022/09/25 07:12:31;;;;;;;8.30;5.90;;;21.20;69.50;;;;;;220245;1270;24283;-49
2022/09/25 07:17:42;;;;;;;11.60;6.00;;;21.20;68.90;;;;;;220779;1267;22544;-47
2022/09/25 07:22:46;;;;;;;13.40;6.30;;;21.20;68.80;;;;;;220231;1267;25242;-49
2022/09/25 07:27:52;;;;;;;12.80;6.60;;;21.30;68.90;;;;;;220568;1267;24374;-49
2022/09/25 07:32:57;;;;;;;11.30;5.80;;;21.20;69.10;;;;;;220246;1268;23936;-47
2022/09/25 07:38:06;;;;;;;11.80;5.70;;;21.30;69.20;;;;;;219995;1267;25203;-52
2022/09/25 07:43:09;;;;;;;9.50;5.40;;;21.20;69.00;;;;;;220054;1267;25275;-51
2022/09/25 07:48:13;;;;;;;11.30;5.40;;;21.20;69.20;;;;;;219998;1267;22606;-50
2022/09/25 07:53:20;;;;;;;10.80;5.30;;;21.20;69.00;;;;;;220172;1267;24221;-47
2022/09/25 07:58:34;;;;;;;9.70;5.60;;;21.20;69.20;;;;;;220124;1267;25424;-49
2022/09/25 08:03:38;;;;;;;10.80;5.30;;;21.20;69.40;;;;;;220439;1267;24192;-50
2022/09/25 08:08:46;;;;;;;11.70;5.80;;;21.20;69.10;;;;;;220327;1267;22539;-49
2022/09/25 08:13:53;;;;;;;15.20;6.10;;;21.30;69.10;;;;;;220188;1267;22575;-50
2022/09/25 08:19:00;;;;;;;12.10;6.50;;;21.30;69.40;;;;;;220169;1269;25571;-52
2022/09/25 08:24:14;;;;;;;13.40;5.20;;;21.30;69.30;;;;;;220213;1267;22702;-48
2022/09/25 08:29:34;;;;;;;13.20;5.20;;;21.30;70.60;;;;;;220181;1267;22557;-50
2022/09/25 08:34:38;;;;;;;16.10;5.80;;;21.40;69.60;;;;;;220323;1267;23185;-49
2022/09/25 08:39:44;;;;;;;14.20;5.50;;;21.50;70.80;;;;;;220059;1268;22779;-52
2022/09/25 08:49:00;;;;;;;10.50;5.50;;;21.60;70.60;;;;;;219938;1268;25228;-47
2022/09/25 08:50:30;;;;;;;12.40;5.80;;;21.70;70.40;;;;;;220088;1267;22561;-54
2022/09/25 09:01:06;;;;;;;9.80;5.40;;;21.80;70.30;;;;;;220767;1267;22561;-48
2022/09/25 09:06:14;;;;;;;12.50;5.80;;;21.90;70.40;;;;;;220436;1267;25231;-50
2022/09/25 09:11:27;;;;;;;10.80;4.70;;;21.80;70.10;;;;;;220124;1268;25205;-49
2022/09/25 09:16:50;;;;;;;11.20;5.90;;;21.90;69.70;;;;;;220165;1267;22727;-52
2022/09/25 09:22:12;;;;;;;14.40;4.80;;;21.90;69.40;;;;;;220007;1270;25316;-51
2022/09/25 09:27:48;;;;;;;9.00;4.80;;;22.00;69.60;;;;;;219931;1270;25286;-52
2022/09/25 09:33:19;;;;;;;11.90;5.60;;;21.90;69.10;;;;;;219929;1268;24218;-52
2022/09/25 09:38:45;;;;;;;13.00;5.60;;;22.10;68.80;;;;;;220348;1267;24218;-52
2022/09/25 09:43:56;;;;;;;9.90;4.40;;;22.20;68.70;;;;;;220144;1267;22751;-50
2022/09/25 09:49:15;;;;;;;11.00;5.30;;;22.30;69.50;;;;;;220271;1267;24849;-50
2022/09/25 09:54:44;;;;;;;14.60;5.30;;;22.40;68.10;;;;;;219959;1267;22593;-48
2022/09/25 09:59:51;;;;;;;11.70;5.20;;;22.40;68.00;;;;;;220484;1267;22557;-52
2022/09/25 10:05:00;;;;;;;9.80;4.80;;;22.40;67.90;;;;;;220422;1268;22708;-49
2022/09/25 10:10:15;;;;;;;7.90;4.80;;;22.50;68.10;;;;;;220357;1267;22556;-53
2022/09/25 10:15:43;;;;;;;9.20;5.00;;;22.50;67.50;;;;;;220584;1267;22633;-48
2022/09/25 10:20:56;;;;;;;10.90;5.20;;;22.60;67.30;;;;;;220775;1268;24436;-50
2022/09/25 10:26:36;;;;;;;11.00;4.60;;;22.60;67.20;;;;;;220700;1267;22541;-49
2022/09/25 10:31:48;;;;;;;11.00;5.00;;;22.60;67.10;;;;;;220738;1267;24217;-52
2022/09/25 10:37:21;;;;;;;9.60;4.70;;;22.60;67.20;;;;;;220565;1267;22754;-53
2022/09/25 10:42:43;;;;;;;28.00;9.80;;;22.70;67.30;;;;;;220163;1267;22578;-52
2022/09/25 10:53:28;;;;;;;11.50;4.90;;;22.90;66.70;;;;;;220206;1267;22727;-53
2022/09/25 10:58:44;;;;;;;15.40;5.40;;;23.00;66.10;;;;;;220500;1267;24247;-47
2022/09/25 11:03:54;;;;;;;9.80;4.80;;;23.00;65.60;;;;;;220100;1267;22689;-49
2022/09/25 11:09:15;;;;;;;11.70;5.10;;;22.90;62.50;;;;;;219714;1267;22553;-45
2022/09/25 11:14:32;;;;;;;6.50;3.90;;;23.00;60.20;;;;;;220323;1267;22561;-49
2022/09/25 11:19:37;;;;;;;9.70;4.70;;;23.10;59.30;;;;;;219939;1267;26725;-50
2022/09/25 11:24:55;;;;;;;8.30;4.10;;;23.20;58.70;;;;;;220236;1267;24192;-54
2022/09/25 11:30:08;;;;;;;8.60;4.00;;;23.20;59.20;;;;;;220057;1270;24264;-55
2022/09/25 11:35:41;;;;;;;5.50;3.60;;;23.20;57.90;;;;;;220175;1270;22702;-52
2022/09/25 11:41:15;;;;;;;4.60;3.50;;;23.30;58.10;;;;;;220065;1267;22531;-48
2022/09/25 11:46:34;;;;;;;9.00;4.20;;;23.30;57.00;;;;;;220228;1267;24412;-49
2022/09/25 11:51:56;;;;;;;8.30;4.70;;;23.10;57.00;;;;;;220172;1267;25492;-48
2022/09/25 11:57:09;;;;;;;7.10;4.10;;;23.10;56.90;;;;;;220225;1268;24660;-48
2022/09/25 12:02:37;;;;;;;7.60;4.50;;;23.10;56.50;;;;;;220466;1267;22523;-48
2022/09/25 12:08:22;;;;;;;6.90;4.20;;;23.10;56.00;;;;;;220019;1267;26359;-48
2022/09/25 12:13:39;;;;;;;7.50;4.10;;;23.10;55.60;;;;;;220384;1268;25393;-49
2022/09/25 12:18:56;;;;;;;5.00;3.60;;;23.20;55.80;;;;;;220150;1267;25452;-51
2022/09/25 12:24:25;;;;;;;7.40;4.30;;;23.30;55.20;;;;;;219645;1268;24046;-51
2022/09/25 12:30:15;;;;;;;10.40;5.30;;;23.20;54.80;;;;;;219941;1267;22620;-49
2022/09/25 12:35:56;;;;;;;8.50;5.30;;;23.20;55.10;;;;;;220286;1267;22771;-48
2022/09/25 12:41:31;;;;;;;7.40;6.20;;;23.30;55.20;;;;;;220065;1267;24259;-55
2022/09/25 12:46:46;;;;;;;7.70;5.50;;;23.30;55.80;;;;;;219933;1270;22640;-54
2022/09/25 12:51:53;;;;;;;6.40;4.70;;;23.30;53.90;;;;;;220222;1267;25563;-50
2022/09/25 12:57:19;;;;;;;6.40;4.70;;;23.30;52.90;;;;;;220211;1267;22553;-50
2022/09/25 13:02:57;;;;;;;10.30;5.20;;;23.30;53.40;;;;;;219867;1267;22537;-51
2022/09/25 13:08:13;;;;;;;9.60;4.20;;;23.30;54.10;;;;;;219902;1267;24768;-52
2022/09/25 13:13:23;;;;;;;5.20;3.40;;;23.20;51.20;;;;;;222985;1267;24225;-52
2022/09/25 13:18:28;;;;;;;8.10;3.30;;;23.20;52.00;;;;;;228093;1267;22386;-53
2022/09/25 13:23:40;;;;;;;10.40;3.90;;;23.30;51.40;;;;;;227903;1265;22339;-50
2022/09/25 13:28:56;;;;;;;5.30;3.30;;;23.30;52.20;;;;;;227715;1270;22368;-50
2022/09/25 13:34:00;;;;;;;12.90;4.70;;;23.30;53.70;;;;;;220463;1269;22545;-51
2022/09/25 13:44:41;;;;;;;7.40;3.70;;;23.40;55.70;;;;;;220192;1267;23134;-50
2022/09/25 13:50:22;;;;;;;14.40;4.60;;;23.50;55.40;;;;;;220423;1267;22560;-53
2022/09/25 13:55:26;;;;;;;5.90;3.40;;;23.50;54.50;;;;;;220013;1270;24086;-50
2022/09/25 14:00:37;;;;;;;7.40;2.90;;;23.40;54.00;;;;;;220299;1267;25850;-53
2022/09/25 14:05:41;;;;;;;6.50;3.10;;;23.40;54.10;;;;;;220485;1267;22694;-51
2022/09/25 14:10:53;;;;;;;5.90;3.60;;;23.40;54.00;;;;;;220173;1267;22648;-51
2022/09/25 14:16:02;;;;;;;4.30;2.60;;;23.30;53.90;;;;;;220540;1267;24195;-52
2022/09/25 14:21:08;;;;;;;4.90;2.90;;;23.30;54.40;;;;;;220067;1268;22693;-51
2022/09/25 14:26:43;;;;;;;8.40;3.50;;;23.30;54.60;;;;;;220038;1267;22531;-54
2022/09/25 14:32:11;;;;;;;6.90;3.60;;;23.30;54.70;;;;;;220138;1271;22539;-53
2022/09/25 14:37:54;;;;;;;8.00;3.30;;;23.20;55.20;;;;;;220330;1268;25355;-50
2022/09/25 14:43:33;;;;;;;6.90;2.90;;;23.20;55.90;;;;;;220155;1268;22620;-53
2022/09/25 14:48:44;;;;;;;8.90;3.60;;;23.20;55.70;;;;;;220184;1267;23958;-50
2022/09/25 14:54:00;;;;;;;7.80;3.20;;;23.20;56.50;;;;;;219858;1270;22618;-49
2022/09/25 14:59:15;;;;;;;11.90;3.00;;;23.20;56.30;;;;;;220109;1267;22764;-52
2022/09/25 15:04:28;;;;;;;15.30;3.60;;;23.20;56.60;;;;;;219460;1267;22531;-49
2022/09/25 15:09:37;;;;;;;5.10;2.80;;;23.10;57.10;;;;;;220073;1267;23244;-49
2022/09/25 15:15:00;;;;;;;8.20;3.20;;;23.20;57.30;;;;;;219934;1267;25921;-48
2022/09/25 15:20:22;;;;;;;4.50;2.80;;;23.10;57.60;;;;;;220291;1267;23247;-50
2022/09/25 15:25:34;;;;;;;10.00;3.30;;;23.10;57.60;;;;;;220477;1268;24224;-49
2022/09/25 15:30:42;;;;;;;8.10;2.70;;;23.00;57.80;;;;;;220457;1268;26593;-49
2022/09/25 15:35:56;;;;;;;11.00;3.50;;;23.10;57.90;;;;;;220843;1268;25346;-48
2022/09/25 15:41:01;;;;;;;6.50;2.70;;;23.10;58.80;;;;;;220341;1270;24215;-47
2022/09/25 15:46:08;;;;;;;5.20;3.00;;;23.00;58.50;;;;;;220499;1268;22540;-47
2022/09/25 15:51:22;;;;;;;6.30;2.80;;;23.00;58.80;;;;;;220476;1268;24782;-48
2022/09/25 15:56:29;;;;;;;5.90;2.80;;;23.00;59.00;;;;;;220575;1268;22595;-49
2022/09/25 16:06:56;;;;;;;6.20;3.00;;;23.00;59.60;;;;;;220378;1268;25423;-46
2022/09/25 16:12:20;;;;;;;7.00;3.10;;;23.00;59.90;;;;;;220567;1268;22606;-49
2022/09/25 16:17:44;;;;;;;7.10;3.40;;;22.90;59.60;;;;;;220539;1268;25570;-47
2022/09/25 16:22:52;;;;;;;5.30;3.50;;;22.90;59.60;;;;;;220483;1268;22564;-46
2022/09/25 16:28:26;;;;;;;5.40;3.40;;;22.90;59.60;;;;;;220381;1268;25249;-48
2022/09/25 16:33:47;;;;;;;5.00;2.90;;;22.90;59.80;;;;;;220511;1269;25236;-47
2022/09/25 16:39:19;;;;;;;6.60;3.80;;;22.90;59.60;;;;;;220500;1270;22691;-52
2022/09/25 16:44:30;;;;;;;7.40;4.00;;;22.90;59.90;;;;;;220569;1268;25286;-55
2022/09/25 16:49:34;;;;;;;8.50;4.30;;;22.90;59.60;;;;;;220690;1268;24060;-49
2022/09/25 16:54:40;;;;;;;8.00;4.30;;;22.80;59.60;;;;;;220293;1268;22537;-46
2022/09/25 16:59:57;;;;;;;8.40;4.20;;;22.80;59.60;;;;;;220507;1268;25519;-54
2022/09/25 17:05:22;;;;;;;8.00;4.00;;;22.80;59.60;;;;;;220345;1268;23895;-51
2022/09/25 17:10:49;;;;;;;7.90;4.10;;;22.90;59.80;;;;;;220339;1268;25512;-53
2022/09/25 17:16:16;;;;;;;11.60;4.80;;;22.80;59.50;;;;;;220027;1268;22582;-51
2022/09/25 17:21:26;;;;;;;8.60;5.30;;;22.90;59.60;;;;;;220414;1268;25571;-47
2022/09/25 17:26:55;;;;;;;8.80;5.00;;;22.80;59.70;;;;;;220272;1268;22596;-47
2022/09/25 17:31:59;;;;;;;11.40;5.60;;;22.80;59.70;;;;;;220011;1271;22544;-49
2022/09/25 17:37:07;;;;;;;10.10;5.30;;;22.80;60.00;;;;;;219926;1269;22544;-49
2022/09/25 17:42:14;;;;;;;12.20;5.40;;;22.80;60.00;;;;;;220256;1268;22739;-50
2022/09/25 17:47:20;;;;;;;8.10;5.00;;;22.80;60.00;;;;;;220050;1268;22846;-49
2022/09/25 17:52:36;;;;;;;10.40;6.10;;;22.80;60.10;;;;;;220229;1268;23708;-47
2022/09/25 17:57:47;;;;;;;11.40;6.20;;;22.80;60.10;;;;;;220194;1268;25458;-48
2022/09/25 18:03:00;;;;;;;11.30;6.40;;;22.80;59.90;;;;;;220145;1268;22609;-49
2022/09/25 18:08:05;;;;;;;9.60;6.50;;;22.80;60.30;;;;;;220236;1268;22544;-50
2022/09/25 18:13:19;;;;;;;10.40;6.30;;;22.80;60.40;;;;;;220156;1268;22579;-47
2022/09/25 18:18:23;;;;;;;11.10;6.80;;;22.80;60.30;;;;;;220462;1268;24310;-48
2022/09/25 18:23:35;;;;;;;10.10;6.70;;;22.80;60.40;;;;;;220093;1267;23939;-46
2022/09/25 18:28:43;;;;;;;10.50;7.00;;;22.80;60.60;;;;;;220183;1268;23908;-52
2022/09/25 18:33:53;;;;;;;14.10;7.10;;;22.70;60.40;;;;;;220086;1268;25243;-51
2022/09/25 18:38:57;;;;;;;11.30;7.60;;;22.80;60.50;;;;;;220450;1268;22534;-49
2022/09/25 18:44:16;;;;;;;73.40;45.90;;;22.70;60.40;;;;;;220113;1267;24215;-50
2022/09/25 18:49:25;;;;;;;;;;;22.80;60.60;;;;;;220152;1267;24235;-51
2022/09/25 18:54:31;;;;;;;50.50;32.70;;;22.70;61.10;;;;;;220431;1267;22603;-48
2022/09/25 18:59:45;;;;;;;70.80;44.80;;;22.70;60.40;;;;;;219848;1270;22700;-52
2022/09/25 19:04:51;;;;;;;65.80;42.10;;;22.70;60.40;;;;;;220164;1268;23080;-51
2022/09/25 19:09:57;;;;;;;64.30;39.10;;;22.70;60.40;;;;;;220235;1267;24345;-52
2022/09/25 19:15:03;;;;;;;57.50;35.90;;;22.70;60.40;;;;;;220147;1270;22635;-49
2022/09/25 19:20:10;;;;;;;57.70;35.90;;;22.70;60.60;;;;;;220142;1272;22770;-51
2022/09/25 19:25:20;;;;;;;49.20;32.60;;;22.70;60.80;;;;;;220450;1268;24357;-52
2022/09/25 19:30:26;;;;;;;51.00;32.70;;;22.70;61.30;;;;;;220463;1268;25432;-49
2022/09/25 19:35:30;;;;;;;50.30;31.20;;;22.70;62.30;;;;;;220361;1267;24750;-49
2022/09/25 19:40:38;;;;;;;47.70;31.70;;;22.70;62.10;;;;;;220289;1267;23190;-49
2022/09/25 19:45:52;;;;;;;47.20;29.70;;;22.70;62.10;;;;;;220354;1267;22759;-48
2022/09/25 19:51:04;;;;;;;51.80;31.60;;;22.70;64.20;;;;;;220286;1267;25596;-51
2022/09/25 19:56:09;;;;;;;50.30;30.80;;;22.70;63.80;;;;;;220154;1271;22631;-49
2022/09/25 20:01:22;;;;;;;49.70;30.20;;;22.70;63.90;;;;;;220063;1268;24910;-52
2022/09/25 20:06:26;;;;;;;43.90;28.70;;;22.70;64.10;;;;;;219874;1267;24219;-50
2022/09/25 20:11:31;;;;;;;51.60;29.20;;;22.70;64.20;;;;;;219850;1267;24232;-51
2022/09/25 20:16:38;;;;;;;45.80;29.90;;;22.70;64.30;;;;;;219999;1268;24212;-51
2022/09/25 20:21:42;;;;;;;43.50;28.20;;;22.70;64.20;;;;;;220158;1267;24377;-49
2022/09/25 20:26:48;;;;;;;44.60;27.50;;;22.70;64.30;;;;;;220165;1267;22621;-48
2022/09/25 20:32:02;;;;;;;41.30;28.10;;;22.70;63.90;;;;;;219909;1268;25488;-50
2022/09/25 20:37:05;;;;;;;41.20;26.90;;;22.70;64.00;;;;;;220280;1267;22559;-48
2022/09/25 20:42:12;;;;;;;39.90;25.90;;;22.60;63.70;;;;;;220130;1267;22535;-46
2022/09/25 20:47:17;;;;;;;42.40;26.70;;;22.60;63.80;;;;;;220276;1267;22555;-48
2022/09/25 20:52:40;;;;;;;38.20;25.70;;;22.60;63.90;;;;;;220047;1267;22560;-46
2022/09/25 20:57:59;;;;;;;39.50;25.50;;;22.50;63.70;;;;;;219564;1267;22560;-51
2022/09/25 21:03:35;;;;;;;38.40;25.40;;;22.60;63.80;;;;;;219654;1268;25532;-47
2022/09/25 21:08:38;;;;;;;39.30;24.80;;;22.60;64.00;;;;;;221874;1267;22967;-51
2022/09/25 21:13:42;;;;;;;37.60;24.80;;;22.60;63.70;;;;;;219963;1268;24273;-48
2022/09/25 21:18:51;;;;;;;37.40;23.50;;;22.50;63.60;;;;;;220302;1267;22531;-51
2022/09/25 21:23:58;;;;;;;35.60;23.90;;;22.50;63.70;;;;;;220452;1268;24260;-46
2022/09/25 21:29:03;;;;;;;34.60;23.80;;;22.50;63.70;;;;;;220435;1267;22539;-46
2022/09/25 21:34:12;;;;;;;36.20;21.10;;;22.50;64.20;;;;;;220483;1268;24348;-53
2022/09/25 21:39:26;;;;;;;35.30;22.20;;;22.50;67.30;;;;;;220368;1267;25321;-50
2022/09/25 21:44:59;;;;;;;31.10;20.70;;;22.50;68.20;;;;;;220352;1267;24224;-47
2022/09/25 21:50:30;;;;;;;31.90;21.70;;;22.50;67.40;;;;;;219808;1267;22893;-45
2022/09/25 21:56:40;;;;;;;31.10;20.70;;;22.60;67.70;;;;;;220748;1267;25349;-47
2022/09/25 22:02:43;;;;;;;28.50;18.90;;;22.60;67.60;;;;;;220251;1267;24774;-51
2022/09/25 22:08:26;;;;;;;28.70;19.10;;;22.60;67.00;;;;;;220408;1267;24300;-53
2022/09/25 22:13:57;;;;;;;29.00;19.60;;;22.60;67.30;;;;;;220069;1268;25682;-46
2022/09/25 22:19:17;;;;;;;30.60;18.90;;;22.50;67.30;;;;;;220482;1267;24258;-49
2022/09/25 22:24:45;;;;;;;28.30;17.60;;;22.50;67.40;;;;;;220355;1267;22605;-47
2022/09/25 22:30:53;;;;;;;29.20;18.40;;;22.50;67.50;;;;;;220106;1267;25497;-50
2022/09/25 22:36:38;;;;;;;23.40;17.40;;;22.50;67.40;;;;;;220328;1267;24229;-47
2022/09/25 22:42:13;;;;;;;27.00;17.70;;;22.50;67.40;;;;;;220350;1267;24795;-53
2022/09/25 22:47:57;;;;;;;27.10;17.80;;;22.50;67.20;;;;;;216144;1267;5764421;-47
2022/09/25 22:53:32;;;;;;;28.70;17.80;;;22.50;67.20;;;;;;220296;1267;22582;-46
2022/09/25 22:59:20;;;;;;;29.20;17.90;;;22.60;67.30;;;;;;220589;1267;22571;-46
2022/09/25 23:04:43;;;;;;;24.80;16.30;;;22.50;67.20;;;;;;220321;1267;25556;-46
2022/09/25 23:09:52;;;;;;;26.20;17.00;;;22.50;66.80;;;;;;220401;1267;22560;-46
2022/09/25 23:15:05;;;;;;;24.70;17.10;;;22.50;67.10;;;;;;220317;1267;24361;-46
2022/09/25 23:20:09;;;;;;;27.50;15.40;;;22.50;67.10;;;;;;220452;1267;22715;-49
2022/09/25 23:25:12;;;;;;;25.70;16.40;;;22.40;67.00;;;;;;220539;1267;25239;-48
2022/09/25 23:30:16;;;;;;;28.40;16.70;;;22.40;67.00;;;;;;220438;1267;25370;-45
2022/09/25 23:35:20;;;;;;;25.00;16.50;;;22.40;66.90;;;;;;220606;1267;24688;-46
2022/09/25 23:40:24;;;;;;;28.00;17.10;;;22.40;66.90;;;;;;220416;1267;24218;-45
2022/09/25 23:45:28;;;;;;;28.60;17.60;;;22.40;66.70;;;;;;220327;1267;24214;-45
2022/09/25 23:50:32;;;;;;;28.30;17.60;;;22.40;66.90;;;;;;220249;1267;24272;-46
2022/09/25 23:55:41;;;;;;;26.00;16.30;;;22.40;66.90;;;;;;219975;1267;24092;-46
